Time;durP1;ratioP1;P1;durP2;ratioP2;P2;SDS_P1;SDS_P2;PMS_P1;PMS_P2;Temp;Humidity;BMP_temperature;BMP_pressure;BME280_temperature;BME280_humidity;BME280_pressure;Samples;Min_cycle;Max_cycle;Signal;HPM_P1;HPM_P2
2021/06/25 00:01:27;;;;;;;;;16.50;16.50;;;;;18.84;46.66;101669.56;5056685;28;45507;-68
2021/06/25 00:03:52;;;;;;;;;19.00;14.25;;;;;18.82;46.69;101677.44;5056652;28;45281;-68
2021/06/25 00:06:17;;;;;;;;;19.75;15.00;;;;;18.80;47.26;101669.53;5057335;28;47527;-68
2021/06/25 00:08:43;;;;;;;;;15.75;14.75;;;;;18.79;47.33;101670.44;5056480;28;45409;-67
2021/06/25 00:11:08;;;;;;;;;16.50;16.00;;;;;18.77;47.24;101666.91;5072576;28;47677;-68
2021/06/25 00:13:34;;;;;;;;;16.25;16.25;;;;;18.76;47.04;101672.16;5057354;28;55871;-68
2021/06/25 00:15:59;;;;;;;;;17.50;15.00;;;;;18.74;47.07;101674.78;5054502;28;45404;-68
2021/06/25 00:18:24;;;;;;;;;17.25;15.75;;;;;18.73;47.22;101666.88;5057008;28;46064;-68
2021/06/25 00:20:50;;;;;;;;;22.75;16.50;;;;;18.72;47.07;101670.38;5039241;28;56649;-68
2021/06/25 00:23:15;;;;;;;;;17.50;15.75;;;;;18.71;47.71;101663.34;5056082;28;56257;-68
2021/06/25 00:25:41;;;;;;;;;17.75;16.50;;;;;18.69;47.40;101663.34;5056093;28;47689;-68
2021/06/25 00:28:06;;;;;;;;;20.25;17.75;;;;;18.67;47.64;101659.84;5057194;28;53166;-68
2021/06/25 00:30:32;;;;;;;;;17.50;16.00;;;;;18.67;47.78;101661.56;5055576;28;61127;-68
2021/06/25 00:32:57;;;;;;;;;16.75;15.50;;;;;18.62;47.45;101651.88;5055480;28;45488;-68
2021/06/25 00:35:22;;;;;;;;;26.75;19.25;;;;;18.62;47.79;101654.53;5056349;28;45384;-68
2021/06/25 00:37:48;;;;;;;;;22.25;18.75;;;;;18.61;47.98;101662.41;5056611;28;60864;-68
2021/06/25 00:40:14;;;;;;;;;18.25;17.25;;;;;18.59;48.22;101665.03;5057234;28;45394;-68
2021/06/25 00:42:39;;;;;;;;;17.75;17.50;;;;;18.59;47.51;101661.53;5055522;28;45522;-68
2021/06/25 00:45:14;;;;;;;;;16.00;16.00;;;;;18.58;47.76;101655.38;5055691;28;45408;-68
2021/06/25 00:47:41;;;;;;;;;18.50;15.25;;;;;18.56;47.69;101648.34;5072503;28;48276;-68
2021/06/25 00:50:07;;;;;;;;;23.75;21.00;;;;;18.55;48.15;101644.84;5054384;28;45784;-68
2021/06/25 00:52:32;;;;;;;;;19.75;17.75;;;;;18.54;48.37;101650.97;5057439;28;45528;-68
2021/06/25 00:54:58;;;;;;;;;22.25;20.00;;;;;18.53;48.25;101640.44;5055825;28;49231;-68
2021/06/25 00:57:23;;;;;;;;;17.75;17.75;;;;;18.51;48.42;101635.16;5056602;28;53843;-68
2021/06/25 00:59:48;;;;;;;;;21.50;21.25;;;;;18.50;48.62;101643.91;5056511;28;55854;-68
2021/06/25 01:02:14;;;;;;;;;25.00;18.50;;;;;18.48;48.08;101641.28;5055252;28;45738;-68
2021/06/25 01:04:39;;;;;;;;;24.50;21.25;;;;;18.46;48.08;101628.97;5072984;28;45671;-68
2021/06/25 01:07:05;;;;;;;;;17.00;17.00;;;;;18.45;48.77;101624.56;5038819;28;46935;-68
2021/06/25 01:09:31;;;;;;;;;21.00;20.00;;;;;18.43;48.74;101628.97;5056786;28;45466;-68
2021/06/25 01:11:57;;;;;;;;;21.50;19.75;;;;;18.40;48.49;101627.19;5054412;28;45532;-68
2021/06/25 01:14:22;;;;;;;;;20.75;20.25;;;;;18.42;48.74;101629.81;5055261;28;45472;-68
2021/06/25 01:16:47;;;;;;;;;17.25;16.25;;;;;18.40;48.79;101624.56;5038764;28;49594;-68
2021/06/25 01:19:14;;;;;;;;;17.75;16.00;;;;;18.37;48.89;101626.28;5056040;28;52362;-68
2021/06/25 01:21:40;;;;;;;;;19.75;19.50;;;;;18.37;48.93;101627.19;5054862;28;45528;-68
2021/06/25 01:24:06;;;;;;;;;22.50;19.00;;;;;18.35;48.69;101617.50;5055266;28;45554;-68
2021/06/25 01:26:32;;;;;;;;;19.00;16.25;;;;;18.34;49.01;101616.63;5055315;28;45825;-68
2021/06/25 01:28:57;;;;;;;;;24.50;21.00;;;;;18.28;48.85;101609.56;5056212;28;53562;-68
2021/06/25 01:31:22;;;;;;;;;23.25;18.75;;;;;18.30;48.79;101621.00;5054038;28;46642;-68
2021/06/25 01:33:48;;;;;;;;;24.00;22.75;;;;;18.27;49.32;101610.47;5056498;28;46461;-68
2021/06/25 01:36:13;;;;;;;;;22.50;20.25;;;;;18.26;49.03;101613.09;5055284;28;45327;-68
2021/06/25 01:38:41;;;;;;;;;24.50;20.00;;;;;18.27;49.06;101614.81;5055399;28;45535;-68
2021/06/25 01:41:06;;;;;;;;;21.50;21.50;;;;;18.24;48.86;101610.41;5054576;28;45400;-68
2021/06/25 01:43:31;;;;;;;;;18.50;18.25;;;;;18.23;49.23;101611.31;5056719;28;45472;-68
2021/06/25 01:45:57;;;;;;;;;20.75;19.00;;;;;18.20;49.06;101613.88;5038531;28;46342;-68
2021/06/25 01:48:22;;;;;;;;;23.50;20.50;;;;;18.21;49.27;101613.03;5053966;28;45630;-68
2021/06/25 01:50:48;;;;;;;;;27.25;22.50;;;;;18.19;49.19;101611.25;5055569;28;45522;-68
2021/06/25 01:53:15;;;;;;;;;23.50;20.00;;;;;18.17;49.33;101611.25;5056716;28;45391;-68
2021/06/25 01:55:41;;;;;;;;;22.50;20.50;;;;;18.16;49.24;101605.97;5056451;28;45396;-68
2021/06/25 01:58:27;;;;;;;;;17.50;16.25;;;;;18.12;49.23;101605.06;5072148;28;45356;-68
2021/06/25 02:00:53;;;;;;;;;25.25;20.50;;;;;18.13;49.75;101606.84;5051487;28;45419;-68
2021/06/25 02:03:18;;;;;;;;;20.75;20.00;;;;;18.10;49.53;101601.56;5056395;28;45345;-68
2021/06/25 02:05:44;;;;;;;;;20.00;19.50;;;;;18.08;49.98;101600.66;5055945;28;45965;-68
2021/06/25 02:08:09;;;;;;;;;20.00;18.00;;;;;18.08;49.93;101592.75;5053670;28;46322;-68
2021/06/25 02:10:34;;;;;;;;;21.50;19.25;;;;;18.06;49.96;101592.75;5054783;28;45581;-68
2021/06/25 02:13:00;;;;;;;;;24.25;21.50;;;;;18.05;49.88;101584.84;5056278;28;45394;-68
2021/06/25 02:15:25;;;;;;;;;23.25;21.75;;;;;18.03;50.10;101584.84;5056035;28;45440;-68
2021/06/25 02:17:50;;;;;;;;;21.50;20.75;;;;;17.94;50.22;101569.91;5055272;28;46124;-68
2021/06/25 02:20:16;;;;;;;;;20.50;20.50;;;;;18.00;49.55;101578.66;5054382;28;50620;-68
2021/06/25 02:22:41;;;;;;;;;20.50;17.75;;;;;17.98;49.74;101562.88;5055626;28;45428;-68
2021/06/25 02:25:09;;;;;;;;;24.25;21.25;;;;;17.97;50.27;101567.28;5037734;28;59026;-68
2021/06/25 02:27:34;;;;;;;;;19.75;18.50;;;;;17.96;50.25;101570.75;5056555;28;45475;-68
2021/06/25 02:29:59;;;;;;;;;19.50;19.00;;;;;17.95;49.96;101566.38;5058395;28;45463;-68
2021/06/25 02:32:25;;;;;;;;;22.50;20.25;;;;;17.94;49.92;101566.34;5059378;28;50224;-68
2021/06/25 02:34:50;;;;;;;;;18.50;15.00;;;;;17.92;50.40;101566.34;5057938;28;47267;-68
2021/06/25 02:37:16;;;;;;;;;25.75;21.00;;;;;17.91;50.41;101559.31;5058202;28;45312;-68
2021/06/25 02:39:41;;;;;;;;;22.75;21.75;;;;;17.90;50.31;101565.44;5058352;28;45878;-68
2021/06/25 02:42:07;;;;;;;;;20.75;19.75;;;;;17.89;50.34;101560.19;5058769;28;51200;-68
2021/06/25 02:44:32;;;;;;;;;23.25;20.25;;;;;17.89;49.94;101566.31;5074293;28;47313;-68
2021/06/25 02:46:57;;;;;;;;;22.50;19.50;;;;;17.84;50.22;101556.63;5059190;28;45404;-68
2021/06/25 02:49:23;;;;;;;;;20.75;20.00;;;;;17.85;50.38;101559.25;5041171;28;45799;-68
2021/06/25 02:51:48;;;;;;;;;25.00;22.00;;;;;17.84;50.15;101552.25;5057371;28;45543;-68
2021/06/25 02:54:14;;;;;;;;;22.50;20.50;;;;;17.80;50.36;101547.81;5058532;28;45913;-68
2021/06/25 02:56:39;;;;;;;;;25.00;21.25;;;;;17.81;50.30;101554.84;5057523;28;56304;-68
2021/06/25 02:59:04;;;;;;;;;25.75;21.00;;;;;17.80;50.33;101558.34;5058642;28;45554;-68
2021/06/25 03:01:30;;;;;;;;;26.50;25.25;;;;;17.79;50.64;101564.47;5057624;28;45439;-68
2021/06/25 03:03:55;;;;;;;;;20.50;20.25;;;;;17.77;50.20;101555.69;5057666;28;46050;-68
2021/06/25 03:06:21;;;;;;;;;23.00;20.25;;;;;17.76;50.76;101559.19;5058481;28;52394;-68
2021/06/25 03:08:46;;;;;;;;;20.25;18.75;;;;;17.76;50.36;101559.19;5059041;28;45514;-68
2021/06/25 03:11:11;;;;;;;;;23.00;21.25;;;;;17.74;50.76;101553.06;5057414;28;45525;-68
2021/06/25 03:13:37;;;;;;;;;21.50;20.00;;;;;17.73;50.41;101553.91;5058357;28;50936;-68
2021/06/25 03:16:02;;;;;;;;;22.00;22.00;;;;;17.71;50.54;101550.38;5058728;28;45458;-67
2021/06/25 03:18:28;;;;;;;;;19.75;18.75;;;;;17.68;50.29;101548.63;5057755;28;45433;-68
2021/06/25 03:20:53;;;;;;;;;27.25;25.25;;;;;17.68;50.86;101551.25;5058322;28;48578;-68
2021/06/25 03:23:19;;;;;;;;;26.50;25.50;;;;;17.68;50.66;101555.63;5057119;28;47423;-68
2021/06/25 03:25:45;;;;;;;;;22.25;20.50;;;;;17.67;50.54;101548.59;5057529;28;45394;-68
2021/06/25 03:28:10;;;;;;;;;24.25;22.75;;;;;17.63;50.36;101548.56;5057277;28;45503;-68
2021/06/25 03:30:36;;;;;;;;;25.75;21.50;;;;;17.63;50.91;101548.56;5058953;28;45334;-68
2021/06/25 03:33:01;;;;;;;;;24.00;22.25;;;;;17.62;50.44;101546.81;5038183;28;47656;-68
2021/06/25 03:35:27;;;;;;;;;30.00;24.75;;;;;17.61;50.59;101555.59;5057841;28;55958;-68
2021/06/25 03:37:52;;;;;;;;;23.25;20.50;;;;;17.60;50.91;101542.44;5058071;28;45332;-68
2021/06/25 03:40:18;;;;;;;;;23.00;22.50;;;;;17.59;50.89;101551.19;5058604;28;45229;-68
2021/06/25 03:42:43;;;;;;;;;27.75;23.25;;;;;17.57;51.13;101552.91;5056592;28;45905;-68
2021/06/25 03:45:09;;;;;;;;;20.75;19.25;;;;;17.55;51.18;101554.66;5073051;28;45395;-68
2021/06/25 03:47:35;;;;;;;;;25.25;21.25;;;;;17.49;50.68;101550.22;5056262;28;45528;-68
2021/06/25 03:50:00;;;;;;;;;23.50;21.25;;;;;17.54;50.95;101566.91;5057995;28;48414;-68
2021/06/25 03:52:26;;;;;;;;;23.50;23.25;;;;;17.54;51.19;101555.50;5056597;28;45873;-68
2021/06/25 03:54:51;;;;;;;;;21.50;21.25;;;;;17.53;51.18;101565.16;5055551;28;54636;-68
2021/06/25 03:57:16;;;;;;;;;25.75;21.75;;;;;17.53;51.04;101552.00;5058255;28;45467;-68
2021/06/25 03:59:42;;;;;;;;;28.25;22.50;;;;;17.54;51.35;101547.63;5073628;28;45420;-68
2021/06/25 04:02:09;;;;;;;;;25.50;23.25;;;;;17.50;51.10;101541.44;5058014;28;45335;-68
2021/06/25 04:04:35;;;;;;;;;23.75;22.75;;;;;17.52;51.43;101546.75;5054675;28;45333;-68
2021/06/25 04:07:00;;;;;;;;;26.75;23.75;;;;;17.49;51.58;101541.44;5057990;28;45534;-68
2021/06/25 04:09:26;;;;;;;;;25.75;23.25;;;;;17.44;51.11;101536.16;5039367;28;47617;-68
2021/06/25 04:11:52;;;;;;;;;24.00;23.00;;;;;17.51;51.33;101551.09;5057908;28;45313;-68
2021/06/25 04:14:17;;;;;;;;;24.50;22.50;;;;;17.51;51.19;101544.97;5057510;28;45420;-68
2021/06/25 04:16:43;;;;;;;;;24.50;22.25;;;;;17.51;51.47;101542.34;5055597;28;45396;-68
2021/06/25 04:19:08;;;;;;;;;25.00;23.50;;;;;17.51;51.49;101540.59;5056967;28;45449;-68
2021/06/25 04:21:34;;;;;;;;;26.50;24.00;;;;;17.52;51.54;101539.72;5057532;28;45903;-68
2021/06/25 04:23:59;;;;;;;;;22.50;22.00;;;;;17.52;51.25;101539.72;5056455;28;45429;-68
2021/06/25 04:26:24;;;;;;;;;31.75;25.00;;;;;17.53;51.21;101546.75;5057968;28;45437;-68
2021/06/25 04:28:50;;;;;;;;;30.00;27.00;;;;;17.54;51.30;101545.00;5056273;28;48544;-68
2021/06/25 04:31:15;;;;;;;;;27.25;24.75;;;;;17.53;51.75;101544.13;5057564;28;45797;-68
2021/06/25 04:33:41;;;;;;;;;27.50;26.00;;;;;17.53;51.65;101544.13;5055798;28;45447;-68
2021/06/25 04:36:06;;;;;;;;;30.00;28.75;;;;;17.55;51.29;101552.88;5057500;28;45336;-68
2021/06/25 04:38:31;;;;;;;;;26.00;26.00;;;;;17.56;51.58;101554.66;5057650;28;45373;-68
2021/06/25 04:40:57;;;;;;;;;32.00;30.00;;;;;17.56;51.56;101551.16;5056809;28;60337;-68
2021/06/25 04:43:22;;;;;;;;;25.00;22.00;;;;;17.58;51.40;101549.41;5055504;28;45431;-68
2021/06/25 04:45:48;;;;;;;;;25.50;23.00;;;;;17.60;51.15;101547.69;5055485;28;46009;-68
2021/06/25 04:48:15;;;;;;;;;30.00;24.75;;;;;17.61;51.54;101549.44;5056207;28;45300;-68
2021/06/25 04:50:40;;;;;;;;;26.25;24.75;;;;;17.57;51.26;101538.03;5056187;28;45997;-68
2021/06/25 04:53:06;;;;;;;;;33.75;27.75;;;;;17.63;51.57;101540.69;5055948;28;45289;-68
2021/06/25 04:55:40;;;;;;;;;29.25;24.00;;;;;17.63;51.58;101537.19;5056372;28;45407;-68
2021/06/25 04:58:06;;;;;;;;;26.75;23.75;;;;;17.63;51.80;101545.06;5057351;28;45504;-67
2021/06/25 05:00:31;;;;;;;;;30.75;26.00;;;;;17.61;51.59;101542.44;5055539;28;45602;-68
2021/06/25 05:02:56;;;;;;;;;32.00;26.25;;;;;17.62;51.66;101540.69;5056671;28;55976;-68
2021/06/25 05:05:22;;;;;;;;;33.50;31.00;;;;;17.64;51.80;101541.59;5054725;28;54235;-68
2021/06/25 05:07:47;;;;;;;;;28.75;24.25;;;;;17.67;51.78;101548.59;5057145;28;45712;-68
2021/06/25 05:10:13;;;;;;;;;30.25;26.25;;;;;17.67;51.94;101544.22;5072402;27;47924;-68
2021/06/25 05:12:38;;;;;;;;;30.25;27.25;;;;;17.69;51.68;101541.63;5056957;28;45523;-68
2021/06/25 05:15:04;;;;;;;;;31.25;24.00;;;;;17.68;51.43;101546.00;5055815;28;45378;-68
2021/06/25 05:17:30;;;;;;;;;29.00;23.75;;;;;17.70;51.51;101548.63;5051906;28;45656;-68
2021/06/25 05:19:55;;;;;;;;;24.75;23.50;;;;;17.70;51.73;101548.63;5056650;28;45427;-68
2021/06/25 05:22:21;;;;;;;;;26.50;23.00;;;;;17.69;51.66;101546.88;5056923;28;45512;-68
2021/06/25 05:24:46;;;;;;;;;24.00;23.75;;;;;17.71;51.73;101553.91;5054414;28;46057;-68
2021/06/25 05:27:11;;;;;;;;;26.25;26.00;;;;;17.63;51.47;101540.69;5054338;28;47558;-68
2021/06/25 05:29:37;;;;;;;;;33.50;27.25;;;;;17.71;51.79;101545.13;5055657;28;57392;-68
2021/06/25 05:32:02;;;;;;;;;26.25;24.00;;;;;17.72;51.74;101549.50;5056332;28;52489;-68
2021/06/25 05:34:28;;;;;;;;;28.50;25.75;;;;;17.73;51.98;101554.78;5048937;28;45385;-68
2021/06/25 05:36:54;;;;;;;;;32.00;27.75;;;;;17.69;51.39;101546.88;5054594;28;45505;-68
2021/06/25 05:39:19;;;;;;;;;30.75;25.75;;;;;17.76;51.70;101551.31;5054910;28;45854;-68
2021/06/25 05:41:45;;;;;;;;;34.50;26.75;;;;;17.75;51.39;101547.81;5055401;28;56639;-68
2021/06/25 05:44:10;;;;;;;;;27.00;25.25;;;;;17.78;51.77;101549.56;5055648;28;51889;-68
2021/06/25 05:46:36;;;;;;;;;26.00;23.00;;;;;17.78;52.05;101549.56;5055969;28;48120;-66
2021/06/25 05:49:01;;;;;;;;;29.50;28.00;;;;;17.80;51.46;101546.09;5055035;28;59422;-66
2021/06/25 05:51:26;;;;;;;;;26.75;25.75;;;;;17.83;51.69;101552.22;5055664;28;54885;-67
2021/06/25 05:53:52;;;;;;;;;25.50;23.75;;;;;17.84;51.50;101554.00;5054465;28;45378;-66
2021/06/25 05:56:17;;;;;;;;;28.00;27.25;;;;;17.86;51.64;101557.50;5055782;28;51307;-68
2021/06/25 05:58:42;;;;;;;;;24.75;23.75;;;;;17.85;51.50;101554.00;5053244;28;59255;-67
2021/06/25 06:01:08;;;;;;;;;30.00;26.00;;;;;17.87;51.56;101546.13;5057150;28;45503;-68
2021/06/25 06:03:33;;;;;;;;;28.75;24.25;;;;;17.89;51.99;101554.91;5058575;28;51553;-67
2021/06/25 06:05:59;;;;;;;;;40.25;32.75;;;;;17.81;51.66;101545.19;5059230;28;49626;-68
2021/06/25 06:08:24;;;;;;;;;36.25;27.75;;;;;17.84;51.64;101544.34;5059035;28;45431;-68
2021/06/25 06:10:49;;;;;;;;;30.25;27.75;;;;;17.91;51.65;101554.06;5057143;28;56063;-68
2021/06/25 06:13:15;;;;;;;;;32.75;30.25;;;;;17.91;51.67;101554.06;5057172;28;51035;-69
2021/06/25 06:15:40;;;;;;;;;27.50;27.50;;;;;17.92;52.12;101553.22;5058460;28;45226;-68
2021/06/25 06:18:07;;;;;;;;;27.75;26.25;;;;;17.93;51.52;101557.59;5057957;28;45386;-67
2021/06/25 06:20:32;;;;;;;;;31.50;27.50;;;;;17.95;51.82;101554.97;5060084;28;46055;-69
2021/06/25 06:34:15;;;;;;;;;27.00;24.75;;;;;18.03;51.48;101548.03;5056817;28;45460;-67
2021/06/25 06:36:40;;;;;;;;;27.50;24.00;;;;;18.05;51.33;101540.13;5054481;28;45512;-69
2021/06/25 06:39:06;;;;;;;;;29.25;24.75;;;;;18.07;51.74;101541.03;5055836;28;45518;-68
2021/06/25 06:41:31;;;;;;;;;22.75;22.75;;;;;18.09;51.77;101536.66;5064541;28;45417;-67
2021/06/25 06:43:57;;;;;;;;;29.00;21.50;;;;;18.11;51.75;101541.06;5057943;28;45534;-67
2021/06/25 06:46:22;;;;;;;;;27.25;23.75;;;;;18.11;51.63;101535.78;5058405;28;45457;-68
2021/06/25 06:48:47;;;;;;;;;27.00;21.50;;;;;18.14;51.29;101535.81;5040667;28;58334;-67
2021/06/25 06:51:14;;;;;;;;;23.25;23.00;;;;;18.18;51.64;101536.72;5054922;28;45787;-67
2021/06/25 06:53:43;;;;;;;;;24.50;20.50;;;;;18.20;51.22;101540.22;5058437;28;45408;-67
2021/06/25 06:56:16;;;;;;;;;24.25;22.50;;;;;18.23;51.20;101542.88;5058404;28;45474;-67
2021/06/25 06:58:41;;;;;;;;;28.25;24.25;;;;;18.27;51.22;101544.66;5059037;28;45570;-67
2021/06/25 07:01:07;;;;;;;;;24.75;20.75;;;;;18.29;51.26;101542.03;5055883;28;45440;-72
2021/06/25 07:03:33;;;;;;;;;27.00;21.50;;;;;18.31;51.19;101543.81;5041029;28;45276;-69
2021/06/25 07:05:58;;;;;;;;;25.25;22.00;;;;;18.37;51.83;101542.06;5024635;28;45446;-66
2021/06/25 07:08:23;;;;;;;;;27.00;24.00;;;;;18.36;51.55;101546.44;5058720;28;47118;-64
2021/06/25 07:10:49;;;;;;;;;25.75;23.75;;;;;18.40;51.76;101545.59;5058515;28;45372;-65
2021/06/25 07:13:14;;;;;;;;;23.25;21.00;;;;;18.44;51.74;101546.50;5056874;28;47368;-64
2021/06/25 07:15:40;;;;;;;;;25.25;20.00;;;;;18.44;51.59;101544.72;5058642;28;45522;-65
2021/06/25 07:18:05;;;;;;;;;22.75;20.25;;;;;18.47;51.82;101544.75;5058556;28;46146;-65
2021/06/25 07:20:31;;;;;;;;;34.00;28.50;;;;;18.50;51.57;101549.13;5057849;28;60992;-67
2021/06/25 07:22:56;;;;;;;;;25.25;22.25;;;;;18.51;52.00;101548.28;5057793;28;45430;-65
2021/06/25 07:25:22;;;;;;;;;28.50;25.00;;;;;18.51;51.50;101534.25;5058748;28;45572;-64
2021/06/25 07:27:47;;;;;;;;;22.00;22.00;;;;;18.52;51.75;101542.16;5057258;28;50753;-64
2021/06/25 07:30:13;;;;;;;;;24.50;21.00;;;;;18.52;51.82;101528.97;5057125;28;53828;-64
2021/06/25 07:32:39;;;;;;;;;25.50;20.50;;;;;18.54;51.63;101527.22;5057608;28;45414;-64
2021/06/25 07:35:05;;;;;;;;;20.00;17.00;;;;;18.56;51.60;101533.38;5057790;28;45542;-64
2021/06/25 07:37:31;;;;;;;;;18.00;17.00;;;;;18.59;51.47;101524.63;5058077;28;47215;-64
2021/06/25 07:39:56;;;;;;;;;21.00;18.50;;;;;18.62;51.49;101528.13;5058066;28;45370;-64
2021/06/25 07:42:22;;;;;;;;;20.50;17.50;;;;;18.65;51.32;101522.00;5057991;28;52126;-64
2021/06/25 07:44:49;;;;;;;;;23.00;19.00;;;;;18.68;51.67;101518.50;5055033;28;45480;-65
2021/06/25 07:47:14;;;;;;;;;23.50;21.50;;;;;18.69;50.60;101515.88;5058077;28;47291;-66
2021/06/25 07:49:39;;;;;;;;;19.75;18.50;;;;;18.70;50.94;101522.00;5057691;28;51930;-65
2021/06/25 07:52:05;;;;;;;;;24.25;22.50;;;;;18.74;51.32;101521.13;5056934;28;45349;-67
2021/06/25 07:54:30;;;;;;;;;23.75;21.00;;;;;18.78;51.07;101517.63;5058145;28;45478;-67
2021/06/25 07:56:56;;;;;;;;;19.75;19.00;;;;;18.82;51.02;101516.75;5056703;28;48138;-67
2021/06/25 07:59:21;;;;;;;;;23.00;19.00;;;;;18.89;50.42;101512.44;5056763;28;45853;-68
2021/06/25 08:01:47;;;;;;;;;19.75;19.75;;;;;18.99;50.67;101506.31;5057049;28;45406;-72
2021/06/25 08:04:12;;;;;;;;;17.75;16.75;;;;;19.25;51.24;101510.75;5057739;28;45439;-78
2021/06/25 08:06:37;;;;;;;;;22.00;20.00;;;;;19.62;51.28;101505.47;5056257;28;56740;-72
2021/06/25 08:09:04;;;;;;;;;17.50;16.75;;;;;20.07;49.96;101506.28;5057452;28;45449;-74
2021/06/25 08:11:33;;;;;;;;;18.75;17.00;;;;;20.55;49.13;101498.16;5057912;28;45565;-70
2021/06/25 08:13:59;;;;;;;;;22.50;21.50;;;;;20.88;48.64;101498.88;5057120;28;45519;-68
2021/06/25 08:16:24;;;;;;;;;19.25;17.75;;;;;21.05;48.52;101495.25;5057673;28;45565;-70
2021/06/25 08:18:57;;;;;;;;;21.25;20.75;;;;;21.06;47.76;101495.25;5057094;28;45274;-76
2021/06/25 08:21:26;;;;;;;;;20.25;16.00;;;;;21.10;47.73;101502.28;5055568;28;45602;-74
2021/06/25 08:23:52;;;;;;;;;20.00;19.00;;;;;21.14;47.95;101498.72;5057848;28;45437;-73
2021/06/25 08:26:17;;;;;;;;;18.25;17.50;;;;;21.30;47.04;101493.31;5057348;28;45954;-73
2021/06/25 08:28:42;;;;;;;;;17.25;16.75;;;;;21.91;46.08;101491.84;5039423;28;48515;-73
2021/06/25 08:31:08;;;;;;;;;19.25;17.00;;;;;22.53;45.89;101493.78;5055078;28;54968;-74
2021/06/25 08:33:33;;;;;;;;;20.75;18.00;;;;;22.87;44.96;101501.28;5056530;28;45543;-74
2021/06/25 08:35:59;;;;;;;;;20.75;19.50;;;;;22.94;43.46;101492.31;5057557;28;46054;-72
2021/06/25 08:38:24;;;;;;;;;20.50;18.25;;;;;22.81;43.52;101486.34;5057527;28;45492;-73
2021/06/25 08:40:49;;;;;;;;;18.25;16.25;;;;;22.62;44.30;101483.06;5057332;28;45907;-71
2021/06/25 08:43:15;;;;;;;;;18.75;17.00;;;;;22.44;44.67;101475.41;5055244;28;45450;-73
2021/06/25 08:45:41;;;;;;;;;17.00;16.00;;;;;22.33;45.00;101476.38;5054388;28;46078;-74
2021/06/25 08:48:07;;;;;;;;;18.00;16.75;;;;;22.26;45.05;101472.03;5056777;28;45309;-73
2021/06/25 08:50:36;;;;;;;;;18.75;16.50;;;;;22.18;45.12;101480.06;5039452;28;45515;-74
2021/06/25 08:53:03;;;;;;;;;21.25;17.25;;;;;22.14;45.55;101466.91;5056446;28;45511;-73
2021/06/25 08:55:28;;;;;;;;;26.50;23.50;;;;;22.10;44.61;101470.47;5056457;28;57823;-70
2021/06/25 08:57:54;;;;;;;;;22.25;20.00;;;;;22.01;45.30;101471.47;5038658;28;55272;-70
2021/06/25 09:00:21;;;;;;;;;21.00;18.50;;;;;21.89;45.16;101474.28;5057212;28;45439;-70
2021/06/25 09:02:47;;;;;;;;;20.75;17.75;;;;;21.81;45.46;101469.91;5056216;28;45555;-67
2021/06/25 09:05:21;;;;;;;;;21.00;19.00;;;;;21.74;45.75;101475.31;5055171;28;45428;-66
2021/06/25 09:07:47;;;;;;;;;16.50;16.50;;;;;21.67;45.79;101464.78;5058063;28;45594;-68
2021/06/25 09:10:12;;;;;;;;;20.50;17.25;;;;;21.79;45.88;101461.13;5062839;28;45401;-67
2021/06/25 09:12:38;;;;;;;;;20.00;18.50;;;;;21.94;45.40;101465.38;5064584;28;45363;-68
2021/06/25 09:15:15;;;;;;;;;20.50;17.75;;;;;22.14;45.16;101461.59;5057870;28;47019;-67
2021/06/25 09:18:01;;;;;;;;;18.75;17.00;;;;;22.46;44.72;101463.88;5076402;27;45402;-67
2021/06/25 09:20:42;;;;;;;;;15.50;15.25;;;;;22.84;45.07;101453.63;5058617;28;45507;-67
2021/06/25 09:23:09;;;;;;;;;20.00;19.50;;;;;23.54;44.15;101458.66;5055951;28;45478;-67
2021/06/25 09:25:53;;;;;;;;;18.25;17.00;;;;;24.08;43.35;101443.50;5055571;28;45463;-67
2021/06/25 09:28:25;;;;;;;;;18.50;17.25;;;;;24.18;42.78;101447.69;5055653;28;45404;-67
2021/06/25 09:30:51;;;;;;;;;18.25;16.75;;;;;24.15;43.09;101442.44;5054814;28;45455;-67
2021/06/25 09:33:16;;;;;;;;;18.75;15.75;;;;;24.05;43.40;101433.81;5037190;28;45528;-67
2021/06/25 09:35:42;;;;;;;;;13.00;12.50;;;;;23.95;43.17;101442.88;5038262;28;45529;-67
2021/06/25 09:38:07;;;;;;;;;13.50;13.50;;;;;23.92;43.50;101440.25;5057510;28;53532;-67
2021/06/25 09:40:36;;;;;;;;;16.75;11.00;;;;;24.00;43.38;101441.88;5057976;28;47177;-68
2021/06/25 09:43:12;;;;;;;;;15.25;14.25;;;;;24.11;42.59;101438.09;5057701;28;45564;-68
2021/06/25 09:45:48;;;;;;;;;12.25;11.50;;;;;24.19;43.17;101439.72;5059287;28;45963;-68
2021/06/25 09:48:13;;;;;;;;;12.75;12.25;;;;;24.20;43.04;101436.13;5058218;28;45495;-67
2021/06/25 09:50:39;;;;;;;;;16.50;14.50;;;;;24.18;43.36;101434.41;5059133;28;45507;-67
2021/06/25 09:53:06;;;;;;;;;13.25;13.25;;;;;24.09;43.09;101435.50;5058542;28;45679;-66
2021/06/25 09:55:52;;;;;;;;;15.50;12.00;;;;;23.92;41.94;101435.84;5058839;28;45612;-73
2021/06/25 10:01:21;;;;;;;;;15.00;13.00;;;;;23.65;43.29;101432.78;5050103;28;45678;-72
2021/06/25 10:03:52;;;;;;;;;13.75;12.75;;;;;23.61;42.96;101433.75;5023021;28;45636;-72
2021/06/25 10:06:19;;;;;;;;;13.25;13.25;;;;;23.58;42.25;101435.59;5056496;28;45894;-72
2021/06/25 10:08:45;;;;;;;;;11.00;11.00;;;;;23.55;43.18;101432.09;5056105;28;45578;-72
2021/06/25 10:11:12;;;;;;;;;13.75;13.75;;;;;23.62;43.09;101430.19;5039611;28;45524;-72
2021/06/25 10:13:39;;;;;;;;;14.50;13.25;;;;;23.65;43.51;101429.28;5056631;28;45672;-71
2021/06/25 10:16:05;;;;;;;;;14.25;13.25;;;;;23.69;42.91;101429.16;5039611;28;45969;-72
2021/06/25 10:18:48;;;;;;;;;13.50;12.75;;;;;23.79;43.20;101429.84;5056118;28;45613;-71
2021/06/25 10:21:15;;;;;;;;;12.25;12.25;;;;;24.08;42.75;101425.75;5036603;28;45572;-66
2021/06/25 10:23:54;;;;;;;;;12.75;12.50;;;;;24.27;42.67;101418.28;5011063;28;45584;-68
2021/06/25 10:26:20;;;;;;;;;10.75;10.75;;;;;24.34;42.38;101406.59;5055609;28;46791;-72
2021/06/25 10:28:47;;;;;;;;;13.75;12.00;;;;;24.35;42.78;101407.50;5057030;28;45561;-72
2021/06/25 10:31:14;;;;;;;;;10.25;9.25;;;;;24.30;42.53;101410.22;5048592;28;45341;-71
2021/06/25 10:33:40;;;;;;;;;15.50;10.25;;;;;24.19;43.14;101407.84;5017505;28;45549;-71
2021/06/25 10:36:06;;;;;;;;;14.00;12.50;;;;;24.14;43.00;101407.06;5063657;28;45420;-72
2021/06/25 10:38:32;;;;;;;;;14.50;10.75;;;;;24.09;42.81;101400.09;5037713;28;45327;-71
2021/06/25 10:40:59;;;;;;;;;12.00;11.25;;;;;24.10;43.22;101405.38;5057168;28;45552;-71
2021/06/25 10:43:43;;;;;;;;;15.25;12.25;;;;;24.06;43.02;101398.38;5059558;28;45250;-71
2021/06/25 10:46:34;;;;;;;;;13.00;10.75;;;;;23.97;43.51;101399.44;5059097;28;46190;-67
2021/06/25 10:49:00;;;;;;;;;13.75;11.50;;;;;23.86;42.69;101398.75;5057908;28;45535;-72
2021/06/25 10:51:26;;;;;;;;;14.50;12.00;;;;;;;;5057543;28;45491;-72
2021/06/25 10:54:22;;;;;;;;;14.25;12.75;;;;;23.66;43.48;101396.53;5057747;28;45411;-72
2021/06/25 10:56:47;;;;;;;;;13.25;13.25;;;;;23.62;43.67;101401.00;5057585;28;45426;-81
2021/06/25 10:59:13;;;;;;;;;13.00;13.00;;;;;23.61;43.81;101396.59;5058791;28;45451;-84
2021/06/25 11:01:54;;;;;;;;;9.00;9.00;;;;;23.54;43.48;101387.88;5076778;28;45387;-82
2021/06/25 11:04:41;;;;;;;;;7.25;7.00;;;;;23.49;43.74;101396.84;5072101;28;45338;-82
2021/06/25 11:07:08;;;;;;;;;7.25;6.50;;;;;23.36;43.97;101386.44;5059825;28;45364;-81
2021/06/25 11:09:52;;;;;;;;;7.00;6.50;;;;;23.33;44.17;101391.81;5041051;28;45512;-83
2021/06/25 11:12:32;;;;;;;;;6.00;6.00;;;;;23.28;44.17;101390.16;5058565;28;45235;-81
2021/06/25 11:15:03;;;;;;;;;7.75;7.75;;;;;23.21;44.36;101400.00;5058891;28;45510;-81
2021/06/25 11:17:48;;;;;;;;;8.00;7.75;;;;;23.17;44.69;101401.81;5058700;28;46181;-81
2021/06/25 11:20:31;;;;;;;;;6.25;6.25;;;;;23.12;44.61;101398.41;5057406;28;45386;-83
2021/06/25 11:23:02;;;;;;;;;7.00;7.00;;;;;23.08;44.42;101395.78;5058765;28;45395;-84